createdAt,value
2023-04-29T00:02:00.154Z,14.18
2023-04-29T00:04:30.359Z,14.21
2023-04-29T00:07:00.298Z,14.14
2023-04-29T00:09:30.004Z,14.14
2023-04-29T00:11:59.824Z,14.00
2023-04-29T00:14:32.128Z,14.04
2023-04-29T00:17:01.946Z,14.03
2023-04-29T00:19:31.720Z,14.01
2023-04-29T00:22:01.540Z,14.03
2023-04-29T00:24:31.331Z,14.11
2023-04-29T00:27:01.815Z,14.00
2023-04-29T00:29:34.169Z,14.07
2023-04-29T00:32:04.133Z,14.04
2023-04-29T00:34:33.898Z,14.07
2023-04-29T00:37:04.221Z,13.88
2023-04-29T00:39:34.418Z,13.79
2023-04-29T00:42:04.288Z,13.93
2023-04-29T00:44:36.611Z,13.96
2023-04-29T00:47:06.432Z,13.78
2023-04-29T00:49:36.188Z,13.87
2023-04-29T00:52:08.266Z,12.81
2023-04-29T00:54:38.169Z,13.47
2023-04-29T00:57:09.050Z,13.58
2023-04-29T00:59:41.640Z,13.85
2023-04-29T01:02:11.777Z,13.78
2023-04-29T01:04:41.509Z,13.81
2023-04-29T01:07:18.439Z,13.80
2023-04-29T01:09:59.866Z,13.67
2023-04-29T01:12:37.180Z,13.75
2023-04-29T01:15:24.012Z,13.72
2023-04-29T01:18:00.285Z,13.76
2023-04-29T01:20:31.255Z,13.54
2023-04-29T01:23:02.063Z,13.58
2023-04-29T01:25:34.844Z,13.68
2023-04-29T01:28:23.903Z,13.66
2023-04-29T01:31:00.354Z,13.60
2023-04-29T01:33:38.182Z,13.68
2023-04-29T01:36:19.817Z,13.65
2023-04-29T01:38:56.642Z,13.61
2023-04-29T01:41:38.402Z,13.67
2023-04-29T01:44:21.744Z,13.54
2023-04-29T01:46:54.817Z,13.50
2023-04-29T01:49:29.687Z,13.41
2023-04-29T01:51:59.437Z,13.53
2023-04-29T01:54:29.175Z,13.42
2023-04-29T01:57:02.922Z,13.54
2023-04-29T01:59:58.626Z,13.33
2023-04-29T02:02:42.981Z,13.42
2023-04-29T02:05:26.573Z,13.26
2023-04-29T02:07:59.668Z,13.36
2023-04-29T02:10:29.550Z,13.42
2023-04-29T02:13:13.859Z,13.42
2023-04-29T02:15:44.706Z,13.34
2023-04-29T02:18:14.806Z,13.30
2023-04-29T02:20:44.781Z,13.20
2023-04-29T02:23:14.763Z,13.22
2023-04-29T02:25:44.485Z,13.15
2023-04-29T02:28:17.998Z,13.14
2023-04-29T02:30:47.790Z,13.06
2023-04-29T02:33:18.531Z,13.08
2023-04-29T02:35:48.555Z,13.07
2023-04-29T02:38:19.536Z,12.93
2023-04-29T02:40:50.615Z,13.01
2023-04-29T02:43:23.308Z,12.98
2023-04-29T02:45:53.122Z,12.89
2023-04-29T02:48:23.090Z,12.91
2023-04-29T02:50:53.006Z,12.91
2023-04-29T02:53:23.514Z,12.95
2023-04-29T02:55:53.309Z,12.95
2023-04-29T02:58:25.703Z,12.83
2023-04-29T03:00:55.657Z,12.98
2023-04-29T03:03:25.999Z,12.86
2023-04-29T03:05:55.844Z,12.72
2023-04-29T03:08:25.629Z,12.77
2023-04-29T03:10:55.367Z,12.74
2023-04-29T03:13:28.411Z,12.75
2023-04-29T03:15:58.846Z,12.59
2023-04-29T03:18:28.926Z,12.70
2023-04-29T03:20:58.791Z,12.58
2023-04-29T03:23:28.652Z,12.61
2023-04-29T03:25:58.933Z,12.63
2023-04-29T03:28:31.583Z,12.54
2023-04-29T03:31:02.110Z,12.57
2023-04-29T03:33:32.004Z,12.45
2023-04-29T03:36:01.939Z,12.47
2023-04-29T03:38:38.299Z,12.45
2023-04-29T03:41:08.459Z,12.42
2023-04-29T03:43:41.096Z,12.31
2023-04-29T03:46:10.921Z,12.30
2023-04-29T03:48:41.216Z,12.36
2023-04-29T03:51:14.321Z,12.28
2023-04-29T03:53:44.662Z,12.16
2023-04-29T03:56:15.483Z,12.25
2023-04-29T03:58:49.279Z,12.50
2023-04-29T04:01:19.574Z,12.39
2023-04-29T04:03:49.828Z,12.47
2023-04-29T04:06:19.818Z,12.39
2023-04-29T04:08:50.150Z,12.41
2023-04-29T04:11:23.740Z,12.26
2023-04-29T04:14:02.024Z,12.27
2023-04-29T04:16:32.835Z,12.15
2023-04-29T04:19:03.024Z,11.93
2023-04-29T04:21:34.823Z,12.04
2023-04-29T04:24:10.040Z,12.24
2023-04-29T04:26:41.649Z,12.27
2023-04-29T04:29:14.365Z,12.23
2023-04-29T04:32:13.128Z,12.36
2023-04-29T04:34:43.060Z,12.38
2023-04-29T04:37:13.324Z,12.25
2023-04-29T04:39:45.096Z,12.36
2023-04-29T04:42:17.141Z,11.96
2023-04-29T04:44:51.792Z,12.40
2023-04-29T04:47:34.641Z,12.34
2023-04-29T04:50:10.651Z,12.38
2023-04-29T04:52:41.280Z,12.20
2023-04-29T04:55:29.687Z,12.10
2023-04-29T04:57:59.746Z,12.24
2023-04-29T05:00:32.683Z,12.18
2023-04-29T05:03:02.759Z,12.02
2023-04-29T05:05:32.582Z,12.08
2023-04-29T05:08:02.414Z,11.99
2023-04-29T05:10:44.605Z,12.10
2023-04-29T05:13:15.341Z,12.12
2023-04-29T05:15:48.491Z,11.93
2023-04-29T05:18:23.443Z,12.02
2023-04-29T05:20:54.680Z,11.98
2023-04-29T05:23:24.568Z,11.84
2023-04-29T05:25:55.011Z,11.95
2023-04-29T05:28:26.042Z,11.99
2023-04-29T05:31:01.453Z,12.14
2023-04-29T05:33:31.249Z,12.19
2023-04-29T05:36:01.136Z,12.23
2023-04-29T05:38:31.434Z,12.14
2023-04-29T05:41:06.537Z,12.17
2023-04-29T05:43:46.506Z,12.05
2023-04-29T05:46:20.758Z,12.10
2023-04-29T05:48:52.165Z,12.10
2023-04-29T05:51:22.146Z,12.11
2023-04-29T05:53:52.330Z,11.94
2023-04-29T05:56:22.606Z,11.93
2023-04-29T05:58:52.493Z,11.94
2023-04-29T06:01:24.815Z,11.89
2023-04-29T06:03:54.865Z,11.66
2023-04-29T06:06:41.389Z,11.64
2023-04-29T06:09:27.448Z,11.65
2023-04-29T06:11:59.796Z,11.75
2023-04-29T06:14:29.602Z,11.61
2023-04-29T06:17:02.256Z,11.68
2023-04-29T06:19:33.745Z,11.66
2023-04-29T06:22:03.565Z,11.68
2023-04-29T06:24:34.353Z,11.69
2023-04-29T06:27:04.829Z,11.76
2023-04-29T06:29:34.770Z,11.59
2023-04-29T06:32:08.035Z,11.67
2023-04-29T06:34:39.635Z,11.59
2023-04-29T06:37:29.157Z,11.68
2023-04-29T06:40:28.278Z,11.56
2023-04-29T06:43:08.297Z,11.51
2023-04-29T06:45:58.369Z,11.66
2023-04-29T06:48:38.179Z,11.77
2023-04-29T06:51:08.488Z,11.83
2023-04-29T06:53:40.155Z,11.89
2023-04-29T06:56:10.872Z,11.56
2023-04-29T06:58:40.601Z,11.89
2023-04-29T07:01:11.163Z,11.89
2023-04-29T07:03:44.032Z,12.13
2023-04-29T07:06:15.000Z,12.10
2023-04-29T07:08:44.880Z,11.90
2023-04-29T07:11:15.066Z,12.13
2023-04-29T07:13:44.864Z,11.91
2023-04-29T07:16:20.660Z,12.13
2023-04-29T07:18:53.126Z,12.26
2023-04-29T07:21:22.884Z,12.17
2023-04-29T07:23:52.742Z,12.35
2023-04-29T07:26:22.518Z,12.41
2023-04-29T07:28:52.306Z,12.27
2023-04-29T07:31:22.733Z,12.14
2023-04-29T07:33:55.327Z,12.35
2023-04-29T07:36:25.244Z,12.30
2023-04-29T07:38:55.257Z,13.00
2023-04-29T07:41:25.041Z,12.85
2023-04-29T07:43:54.783Z,12.87
2023-04-29T07:46:24.624Z,12.81
2023-04-29T07:48:58.528Z,12.92
2023-04-29T07:51:29.306Z,13.20
2023-04-29T07:53:59.059Z,13.09
2023-04-29T07:56:28.816Z,13.17
2023-04-29T07:58:58.590Z,13.30
2023-04-29T08:01:28.485Z,13.02
2023-04-29T08:04:01.218Z,13.14
2023-04-29T08:06:31.393Z,13.14
2023-04-29T08:09:02.709Z,13.08
2023-04-29T08:11:33.095Z,13.16
2023-04-29T08:14:02.922Z,13.05
2023-04-29T08:16:32.730Z,13.16
2023-04-29T08:19:05.238Z,13.36
2023-04-29T08:21:35.441Z,13.32
2023-04-29T08:24:05.888Z,13.46
2023-04-29T08:26:35.672Z,13.30
2023-04-29T08:29:05.649Z,13.40
2023-04-29T08:31:35.705Z,13.68
2023-04-29T08:34:08.067Z,13.68
2023-04-29T08:36:38.845Z,13.90
2023-04-29T08:39:09.066Z,13.87
2023-04-29T08:41:40.000Z,13.81
2023-04-29T08:44:09.814Z,13.88
2023-04-29T08:46:40.197Z,13.99
2023-04-29T08:49:13.141Z,14.06
2023-04-29T08:51:42.953Z,13.99
2023-04-29T08:54:14.071Z,14.09
2023-04-29T08:56:48.742Z,14.21
2023-04-29T08:59:20.258Z,14.32
2023-04-29T09:01:54.104Z,14.25
2023-04-29T09:04:40.982Z,14.10
2023-04-29T09:07:11.377Z,14.12
2023-04-29T09:09:42.769Z,14.02
2023-04-29T09:12:12.543Z,14.11
2023-04-29T09:14:42.318Z,14.32
2023-04-29T09:17:12.133Z,14.12
2023-04-29T09:19:44.627Z,14.13
2023-04-29T09:22:14.421Z,14.08
2023-04-29T09:24:45.766Z,13.78
2023-04-29T09:27:29.891Z,13.93
2023-04-29T09:30:03.866Z,14.13
2023-04-29T09:32:33.844Z,14.38
2023-04-29T09:35:25.100Z,14.25
2023-04-29T09:37:56.664Z,14.23
2023-04-29T09:40:40.433Z,14.13
2023-04-29T09:43:18.493Z,13.87
2023-04-29T09:45:50.092Z,13.93
2023-04-29T09:48:20.515Z,13.84
2023-04-29T09:51:04.801Z,13.94
2023-04-29T09:53:38.199Z,13.86
2023-04-29T09:56:09.514Z,13.89
2023-04-29T09:58:40.569Z,14.19
2023-04-29T10:01:13.580Z,14.23
2023-04-29T10:03:45.261Z,14.00
2023-04-29T10:06:20.034Z,14.17
2023-04-29T10:08:51.030Z,14.30
2023-04-29T10:11:21.034Z,14.17
2023-04-29T10:13:53.134Z,14.84
2023-04-29T10:16:31.907Z,14.79
2023-04-29T10:19:07.088Z,14.90
2023-04-29T10:21:39.739Z,15.21
2023-04-29T10:24:10.747Z,15.45
2023-04-29T10:26:42.524Z,15.26
2023-04-29T10:29:14.142Z,15.09
2023-04-29T10:31:46.243Z,15.17
2023-04-29T10:34:16.724Z,15.14
2023-04-29T10:36:50.032Z,15.45
2023-04-29T10:39:30.800Z,15.55
2023-04-29T10:42:01.204Z,15.63
2023-04-29T10:44:30.950Z,15.66
2023-04-29T10:47:22.319Z,15.71
2023-04-29T10:50:07.605Z,15.76
2023-04-29T10:52:58.107Z,15.54
2023-04-29T10:55:28.106Z,15.02
2023-04-29T10:57:58.738Z,14.76
2023-04-29T11:00:30.795Z,14.87
2023-04-29T11:03:02.527Z,14.62
2023-04-29T11:05:37.185Z,14.91
2023-04-29T11:08:23.190Z,14.99
2023-04-29T11:10:55.784Z,15.14
2023-04-29T11:13:28.160Z,15.18
2023-04-29T11:16:07.371Z,15.21
2023-04-29T11:18:38.170Z,15.21
2023-04-29T11:21:17.807Z,15.23
2023-04-29T11:23:51.057Z,15.34
2023-04-29T11:26:22.473Z,15.10
2023-04-29T11:28:54.755Z,15.17
2023-04-29T11:31:25.391Z,15.37
2023-04-29T11:33:56.630Z,15.10
2023-04-29T11:36:27.462Z,15.14
2023-04-29T11:38:59.824Z,15.17
2023-04-29T11:41:29.735Z,15.07
2023-04-29T11:44:00.395Z,15.07
2023-04-29T11:46:34.082Z,15.38
2023-04-29T11:49:04.829Z,15.17
2023-04-29T11:51:34.645Z,15.72
2023-04-29T11:54:08.304Z,15.79
2023-04-29T11:56:40.965Z,15.74
2023-04-29T11:59:10.901Z,15.98
2023-04-29T12:01:40.895Z,15.89
2023-04-29T12:04:10.839Z,15.95
2023-04-29T12:06:41.859Z,16.19
2023-04-29T12:09:15.985Z,16.17
2023-04-29T12:11:47.186Z,16.18
2023-04-29T12:14:17.390Z,16.72
2023-04-29T12:16:47.337Z,16.57
2023-04-29T12:19:17.355Z,16.54
2023-04-29T12:21:53.607Z,16.50
2023-04-29T12:24:27.377Z,16.48
2023-04-29T12:26:59.912Z,16.44
2023-04-29T12:29:29.804Z,16.01
2023-04-29T12:31:59.873Z,15.97
2023-04-29T12:34:31.596Z,15.95
2023-04-29T12:37:02.981Z,15.82
2023-04-29T12:39:35.825Z,15.83
2023-04-29T12:42:06.006Z,15.91
2023-04-29T12:44:38.907Z,15.83
2023-04-29T12:47:13.775Z,15.83
2023-04-29T12:49:45.471Z,15.69
2023-04-29T12:52:15.323Z,15.60
2023-04-29T12:54:47.967Z,15.70
2023-04-29T12:57:17.704Z,15.73
2023-04-29T12:59:47.435Z,16.01
2023-04-29T13:02:17.675Z,16.23
2023-04-29T13:04:47.737Z,16.36
2023-04-29T13:07:18.384Z,16.23
2023-04-29T13:09:51.165Z,16.08
2023-04-29T13:12:20.876Z,16.11
2023-04-29T13:14:51.465Z,16.11
2023-04-29T13:17:21.406Z,16.04
2023-04-29T13:19:52.268Z,15.98
2023-04-29T13:22:22.659Z,16.07
2023-04-29T13:24:55.277Z,16.16
2023-04-29T13:27:25.276Z,16.16
2023-04-29T13:29:55.406Z,16.37
2023-04-29T13:32:25.931Z,16.27
2023-04-29T13:34:56.521Z,16.56
2023-04-29T13:37:26.583Z,16.47
2023-04-29T13:39:58.898Z,16.39
2023-04-29T13:42:28.661Z,16.29
2023-04-29T13:44:58.470Z,16.16
2023-04-29T13:47:30.429Z,16.18
2023-04-29T14:05:28.590Z,16.33
2023-04-29T14:07:58.476Z,16.22
2023-04-29T14:10:31.338Z,16.18
2023-04-29T14:13:01.314Z,16.24
2023-04-29T14:15:31.199Z,16.20
2023-04-29T14:18:01.127Z,16.52
2023-04-29T14:20:30.975Z,16.89
2023-04-29T14:23:01.054Z,17.15
2023-04-29T14:25:34.075Z,17.13
2023-04-29T14:28:04.186Z,16.78
2023-04-29T14:30:33.953Z,16.73
2023-04-29T14:33:04.217Z,16.48
2023-04-29T14:35:34.215Z,16.43
2023-04-29T14:38:03.929Z,16.33
2023-04-29T14:40:36.656Z,16.46
2023-04-29T14:43:06.776Z,16.40
2023-04-29T14:45:37.802Z,16.49
2023-04-29T14:48:08.226Z,16.58
2023-04-29T14:50:38.089Z,16.59
2023-04-29T14:53:08.947Z,16.75
2023-04-29T14:55:41.307Z,16.92
2023-04-29T14:58:11.041Z,16.79
2023-04-29T15:00:40.800Z,16.98
2023-04-29T15:03:10.956Z,16.88
2023-04-29T15:05:41.166Z,16.67
2023-04-29T15:08:11.446Z,16.80
2023-04-29T15:10:44.186Z,16.77
2023-04-29T15:13:13.982Z,16.89
2023-04-29T15:15:43.773Z,17.09
2023-04-29T15:18:13.732Z,17.07
2023-04-29T15:20:43.597Z,16.81
2023-04-29T15:23:13.386Z,16.91
2023-04-29T15:25:45.891Z,16.92
2023-04-29T15:28:15.806Z,16.92
2023-04-29T15:30:45.551Z,16.74
2023-04-29T15:33:15.334Z,16.40
2023-04-29T15:35:45.183Z,16.15
2023-04-29T15:38:14.989Z,16.21
2023-04-29T15:40:47.360Z,15.87
2023-04-29T15:43:17.185Z,16.16
2023-04-29T15:45:46.940Z,16.13
2023-04-29T15:48:16.865Z,16.09
2023-04-29T15:50:46.864Z,16.23
2023-04-29T15:53:16.613Z,16.24
2023-04-29T15:55:48.915Z,16.17
2023-04-29T15:58:18.767Z,16.38
2023-04-29T16:00:48.548Z,16.40
2023-04-29T16:03:18.466Z,16.45
2023-04-29T16:05:48.243Z,16.68
2023-04-29T16:08:18.003Z,16.63
2023-04-29T16:10:50.376Z,16.45
2023-04-29T16:13:20.180Z,16.25
2023-04-29T16:15:50.045Z,16.22
2023-04-29T16:18:20.548Z,16.34
2023-04-29T16:20:50.284Z,16.33
2023-04-29T16:23:20.042Z,16.45
2023-04-29T16:25:52.865Z,16.38
2023-04-29T16:28:22.645Z,16.22
2023-04-29T16:30:52.413Z,16.10
2023-04-29T16:33:22.281Z,16.12
2023-04-29T16:35:52.223Z,16.07
2023-04-29T16:38:21.970Z,15.94
2023-04-29T16:40:54.526Z,15.95
2023-04-29T16:43:24.487Z,15.84
2023-04-29T16:45:54.335Z,15.74
2023-04-29T16:48:24.171Z,15.86
2023-04-29T16:50:53.970Z,15.82
2023-04-29T16:53:23.915Z,15.80
2023-04-29T16:55:56.462Z,15.61
2023-04-29T16:58:26.231Z,15.50
2023-04-29T17:00:56.305Z,15.50
2023-04-29T17:03:26.107Z,15.51
2023-04-29T17:05:56.276Z,15.33
2023-04-29T17:08:27.379Z,15.44
2023-04-29T17:10:59.771Z,15.36
2023-04-29T17:13:29.892Z,15.26
2023-04-29T17:15:59.651Z,15.23
2023-04-29T17:18:29.661Z,15.18
2023-04-29T17:20:59.459Z,15.35
2023-04-29T17:23:30.810Z,15.39
2023-04-29T17:26:03.418Z,15.06
2023-04-29T17:28:33.476Z,14.97
2023-04-29T17:31:03.640Z,14.87
2023-04-29T17:33:37.117Z,14.71
2023-04-29T17:36:07.983Z,14.77
2023-04-29T17:38:37.760Z,14.79
2023-04-29T17:41:10.060Z,14.72
2023-04-29T17:43:39.903Z,14.64
2023-04-29T17:46:09.750Z,14.56
2023-04-29T17:48:39.603Z,14.52
2023-04-29T17:51:09.394Z,14.63
2023-04-29T17:53:39.139Z,14.52
2023-04-29T17:56:11.504Z,14.07
2023-04-29T17:58:41.224Z,14.23
2023-04-29T18:01:11.079Z,14.07
2023-04-29T18:03:42.139Z,14.01
2023-04-29T18:06:11.984Z,14.06
2023-04-29T18:08:42.150Z,14.14
2023-04-29T18:11:15.190Z,14.07
2023-04-29T18:13:45.395Z,14.14
2023-04-29T18:16:15.299Z,14.09
2023-04-29T18:18:45.085Z,14.03
2023-04-29T18:21:15.308Z,14.03
2023-04-29T18:23:45.041Z,14.00
2023-04-29T18:26:17.452Z,14.01
2023-04-29T18:28:47.521Z,13.91
2023-04-29T18:31:18.109Z,14.24
2023-04-29T18:33:48.056Z,14.13
2023-04-29T18:36:17.835Z,14.05
2023-04-29T18:38:47.632Z,13.54
2023-04-29T18:41:20.049Z,13.84
2023-04-29T18:43:49.777Z,13.69
2023-04-29T18:46:19.600Z,13.66
2023-04-29T18:48:49.363Z,13.59
2023-04-29T18:51:19.366Z,13.53
2023-04-29T18:53:49.155Z,13.55
2023-04-29T18:56:21.595Z,13.55
2023-04-29T18:58:51.532Z,13.47
2023-04-29T19:01:21.299Z,13.46
2023-04-29T19:03:51.678Z,13.38
2023-04-29T19:06:21.443Z,13.33
2023-04-29T19:08:51.263Z,13.25
2023-04-29T19:11:23.665Z,13.14
2023-04-29T19:13:53.458Z,12.93
2023-04-29T19:16:23.705Z,12.82
2023-04-29T19:18:53.686Z,12.61
2023-04-29T19:21:23.743Z,12.56
2023-04-29T19:23:53.943Z,12.43
2023-04-29T19:26:26.329Z,12.34
2023-04-29T19:28:56.073Z,12.24
2023-04-29T19:31:25.857Z,12.11
2023-04-29T19:33:55.689Z,11.89
2023-04-29T19:36:25.488Z,11.92
2023-04-29T19:38:55.323Z,11.96
2023-04-29T19:41:27.698Z,11.96
2023-04-29T19:43:57.476Z,11.80
2023-04-29T19:46:27.292Z,11.70
2023-04-29T19:48:57.461Z,11.69
2023-04-29T19:51:27.215Z,11.74
2023-04-29T19:54:01.653Z,11.83
2023-04-29T19:56:34.056Z,11.77
2023-04-29T19:59:03.803Z,11.36
2023-04-29T20:01:33.876Z,11.70
2023-04-29T20:04:03.738Z,11.60
2023-04-29T20:06:37.681Z,11.62
2023-04-29T20:09:09.511Z,11.70
2023-04-29T20:11:41.818Z,11.80
2023-04-29T20:14:11.745Z,11.83
2023-04-29T20:16:41.683Z,11.95
2023-04-29T20:19:12.010Z,12.06
2023-04-29T20:21:42.261Z,12.17
2023-04-29T20:24:11.978Z,12.18
2023-04-29T20:26:44.321Z,12.25
2023-04-29T20:29:14.079Z,12.14
2023-04-29T20:31:44.075Z,12.09
2023-04-29T20:34:13.965Z,12.13
2023-04-29T20:36:43.718Z,12.16
2023-04-29T20:39:13.551Z,12.15
2023-04-29T20:41:45.867Z,12.14
2023-04-29T20:44:15.617Z,11.96
2023-04-29T20:46:46.228Z,11.96
2023-04-29T20:49:16.001Z,11.95
2023-04-29T20:51:45.842Z,11.87
2023-04-29T20:54:15.566Z,11.47
2023-04-29T20:56:47.886Z,11.85
2023-04-29T20:59:17.645Z,11.79
2023-04-29T21:01:47.628Z,11.75
2023-04-29T21:04:18.197Z,11.51
2023-04-29T21:06:47.950Z,11.61
2023-04-29T21:09:18.001Z,11.50
2023-04-29T21:11:50.621Z,11.48
2023-04-29T21:14:20.410Z,11.40
2023-04-29T21:16:50.179Z,11.36
2023-04-29T21:19:20.006Z,11.44
2023-04-29T21:21:49.733Z,11.43
2023-04-29T21:24:19.469Z,11.31
2023-04-29T21:26:51.776Z,11.31
2023-04-29T21:29:21.560Z,11.31
2023-04-29T21:31:51.433Z,11.25
2023-04-29T21:34:21.373Z,10.75
2023-04-29T21:36:51.112Z,11.18
2023-04-29T21:39:20.907Z,11.16
2023-04-29T21:41:53.658Z,11.23
2023-04-29T21:44:23.467Z,11.15
2023-04-29T21:46:53.289Z,11.17
2023-04-29T21:49:23.237Z,10.88
2023-04-29T21:51:53.141Z,11.00
2023-04-29T21:54:23.079Z,11.04
2023-04-29T21:56:56.295Z,11.02
2023-04-29T21:59:26.238Z,10.60
2023-04-29T22:02:00.605Z,10.79
2023-04-29T22:04:30.955Z,10.62
2023-04-29T22:07:01.217Z,10.53
2023-04-29T22:09:31.095Z,10.54
2023-04-29T22:12:03.777Z,10.30
2023-04-29T22:14:33.692Z,10.47
2023-04-29T22:17:03.650Z,10.36
2023-04-29T22:19:33.515Z,10.29
2023-04-29T22:22:04.317Z,10.33
2023-04-29T22:24:34.253Z,10.17
2023-04-29T22:27:07.062Z,10.20
2023-04-29T22:29:36.773Z,10.23
2023-04-29T22:32:07.342Z,9.99
2023-04-29T22:34:37.111Z,10.19
2023-04-29T22:37:07.035Z,10.18
2023-04-29T22:39:36.927Z,10.02
2023-04-29T22:42:09.675Z,10.14
2023-04-29T22:44:39.571Z,10.20
2023-04-29T22:47:09.430Z,10.10
2023-04-29T22:49:39.150Z,10.06
2023-04-29T22:52:08.965Z,10.00
2023-04-29T22:54:38.736Z,9.98
2023-04-29T22:57:11.227Z,9.86
2023-04-29T22:59:41.021Z,9.85
2023-04-29T23:02:10.887Z,9.89
2023-04-29T23:04:40.657Z,9.77
2023-04-29T23:07:10.451Z,9.40
2023-04-29T23:09:40.185Z,9.65
2023-04-29T23:12:12.537Z,9.63
2023-04-29T23:14:42.270Z,9.45
2023-04-29T23:17:12.035Z,9.69
2023-04-29T23:19:42.565Z,9.67
2023-04-29T23:22:12.899Z,9.63
2023-04-29T23:24:42.613Z,9.75
2023-04-29T23:27:14.924Z,9.79
2023-04-29T23:29:44.627Z,9.79
2023-04-29T23:32:14.353Z,9.76
2023-04-29T23:34:44.101Z,9.51
2023-04-29T23:37:13.858Z,9.75
2023-04-29T23:39:43.615Z,9.73
2023-04-29T23:42:15.935Z,9.83
2023-04-29T23:44:45.704Z,9.69
2023-04-29T23:47:15.408Z,9.71
2023-04-29T23:49:45.568Z,9.55
2023-04-29T23:52:15.305Z,9.60
2023-04-29T23:54:45.070Z,9.23
2023-04-29T23:57:18.036Z,9.50
2023-04-29T23:59:47.974Z,9.49
